^^
Meteo Knjazevac Station Historical Data
Daily Summary for June 16, 2021 Units:  English    Metric   Both
Daily Weekly Monthly Yearly Custom
  High: Low: Average:
Temperature: 62 °F 58.1 °F 59.2 °F
Dew Point: 57.1 °F 55.2 °F 55.9 °F
Humidity: 91% 84% 89%
Wind Speed: 3mph 0mph 1.4mph
Wind Gust: 6mph - -
Wind- - SE
Pressure: 30.05 in 30.02 in -
Precipitation: 0.00 in    
Historical Graphs
 
 
Tabular Data for June 16, 2021
Time Temperature Dew Point Pressure Wind Wind Speed Wind Gust Humidity Rainfall Rate (Hourly) solar Conditions
00:00 62 °F 57.1 °F 30.05 in NE 1 mph 3 mph 84% 0.00 in 0 W/m2
00:10 61.7 °F 56.8 °F 30.05 in Calm   6 mph 84% 0.00 in 0 W/m2
00:20 61.5 °F 57 °F 30.05 in NNE 1 mph 2 mph 85% 0.00 in 0 W/m2
00:30 61.2 °F 56.6 °F 30.04 in Calm   3 mph 85% 0.00 in 0 W/m2
00:40 60.6 °F 56.4 °F 30.04 in SSE 2 mph 5 mph 86% 0.00 in 0 W/m2
00:50 60.2 °F 56.6 °F 30.05 in SE 2 mph 4 mph 88% 0.00 in 0 W/m2
01:00 59.9 °F 56.3 °F 30.05 in Calm   4 mph 88% 0.00 in 0 W/m2
01:10 59.5 °F 56 °F 30.04 in Calm   5 mph 88% 0.00 in 0 W/m2
01:20 59.4 °F 56.1 °F 30.04 in South 1 mph 6 mph 89% 0.00 in 0 W/m2
01:30 59 °F 55.8 °F 30.04 in SE 2 mph 5 mph 89% 0.00 in 0 W/m2
01:40 58.6 °F 55.7 °F 30.04 in SSE 2 mph 6 mph 90% 0.00 in 0 W/m2
01:50 58.5 °F 55.5 °F 30.04 in SSE 1 mph 4 mph 90% 0.00 in 0 W/m2
02:00 58.3 °F 55.4 °F 30.04 in SSE 2 mph 5 mph 90% 0.00 in 0 W/m2
02:10 58.1 °F 55.2 °F 30.04 in South 3 mph 5 mph 90% 0.00 in 0 W/m2
02:20 58.1 °F 55.2 °F 30.04 in Calm   5 mph 90% 0.00 in 0 W/m2
02:30 58.3 °F 55.4 °F 30.04 in East 1 mph 2 mph 90% 0.00 in 0 W/m2
02:40 58.1 °F 55.2 °F 30.04 in South 1 mph 4 mph 90% 0.00 in 0 W/m2
02:50 58.3 °F 55.4 °F 30.04 in East 1 mph 4 mph 90% 0.00 in 0 W/m2
03:00 58.5 °F 55.5 °F 30.03 in ESE 1 mph 2 mph 90% 0.00 in 0 W/m2
03:10 58.5 °F 55.5 °F 30.03 in Calm   2 mph 90% 0.00 in 0 W/m2
03:20 58.5 °F 55.8 °F 30.03 in East 1 mph 4 mph 91% 0.00 in 0 W/m2
03:30 58.6 °F 56 °F 30.02 in SE 3 mph 6 mph 91% 0.00 in 0 W/m2
03:40 58.8 °F 55.9 °F 30.02 in South 3 mph 5 mph 90% 0.00 in 0 W/m2
03:50 58.8 °F 55.9 °F 30.03 in SE 1 mph 3 mph 90% 0.00 in 0 W/m2
04:00 58.8 °F 55.9 °F 30.03 in SSE 3 mph 5 mph 90% 0.00 in 0 W/m2
04:10 58.8 °F 55.9 °F 30.02 in WSW 1 mph 5 mph 90% 0.00 in 0 W/m2
04:20 58.6 °F 55.7 °F 30.02 in SSE 2 mph 4 mph 90% 0.00 in 0 W/m2
04:30 58.7 °F 55.8 °F 30.03 in SSE 2 mph 5 mph 90% 0.00 in 0 W/m2
04:40 59 °F 56.1 °F 30.03 in SSE 1 mph 6 mph 90% 0.00 in 0 W/m2
04:50 59.1 °F 56.1 °F 30.03 in SE 2 mph 6 mph 90% 0.00 in 2 W/m2
05:00 59.2 °F 55.9 °F 30.03 in SSE 2 mph 5 mph 89% 0.00 in 5 W/m2
05:10 59.2 °F 55.9 °F 30.03 in SE 2 mph 5 mph 89% 0.00 in 9 W/m2
05:20 59.2 °F 55.9 °F 30.03 in SSE 1 mph 6 mph 89% 0.00 in 13 W/m2
Knjazevac, Serbia
Compliments of Weather Underground - 2 mb